Antigo, Wisconsin
Current Conditions -  °F | °C
As of 3:35 PM on Monday 24 Nov 2014 (Local Time) from KAIG Reporting Station
Moderate Snow Moderate Snow  
Wind Chill: 15°   Ceiling: 900
Heat Index: 28°   Visibility: 0.5mi
Dew Point: 26°   Wind: 17mph
Humidity: 95%   Direction: 340°NNW
Pressure: 29.25"   Gusts: NA
Location:  45.14°N, 89.15°W
Report Text: KAIG 242135Z AUTO 34015KT 1/2SM SN OVC009 M02/M03 A2925 RMK AO2 P0001 T10251032
Loading
Personal Weather Stations






























Interactive Weather Map New forecast layout! Learn more

10-Day Weather Forecast

Advertisements
Track Severe Weather on mobile